Kim King — WDG5328 — position and weather

sailwx.info

Track history (hours):
 
Tides and Currents Weather Stations Pressure Air Temp Water Temp Dewpoint Dewpoint Depression Visibility Wind Speed Wind Dir Waves Ship Positions

Kim King

Owner: Terral RiverService, Inc., Lake Providence, LA. More information available from US FCC via Universal Licensing System and Coast Guard Vessel Documentation Center.

Last reported at 2017-Dec-11 16:38 UTC. Time now 2017-Dec-13 20:54 UTC.
Position N 32°45' W 091°10'.

; draft 6 m.

Type: Towing. MMSI: 367545540.

Date/timePositionNaut miles runAvg speedWind from/ knotsBaromVisibWave heightAir tempDewpointWater temp
2017-Dec-11 16:38N 32°45' W 091°10'0 0.0
2017-Dec-11 16:19N 32°45' W 091°10'1 1.3
2017-Dec-11 15:51N 32°45' W 091°10'1 0.2
2017-Dec-11 12:14N 32°45' W 091°10'0 0.0
2017-Dec-11 12:00N 32°45' W 091°10'0 0.0
2017-Dec-11 10:57N 32°45' W 091°10'0 0.0
2017-Dec-11 10:23N 32°45' W 091°10'0 0.0
2017-Dec-11 09:59N 32°45' W 091°10'0 0.0
2017-Dec-11 09:22N 32°45' W 091°10'0 0.0
2017-Dec-11 08:53N 32°45' W 091°10'0 0.0
2017-Dec-11 08:17N 32°45' W 091°10'0 0.0
2017-Dec-11 08:00N 32°45' W 091°10'0 0.0
2017-Dec-11 06:35N 32°45' W 091°10'0 0.0
2017-Dec-11 04:52N 32°45' W 091°10'0 0.0
2017-Dec-10 15:44N 32°45' W 091°10'0 0.0
2017-Dec-10 15:30N 32°45' W 091°10'0 0.0
2017-Dec-10 15:00N 32°45' W 091°10'0 0.0
2017-Dec-10 14:30N 32°45' W 091°10'0 0.2
2017-Dec-10 13:49N 32°45' W 091°10'0 0.2
2017-Dec-10 11:51N 32°45' W 091°10'0 0.0
2017-Dec-10 08:35N 32°45' W 091°10'0 0.2
2017-Dec-10 07:48N 32°45' W 091°10'5 4.0
2017-Dec-10 06:34N 32°44' W 091°04'5 4.8
2017-Dec-10 05:28N 32°45' W 091°10'0 0.0
2017-Dec-10 05:00N 32°45' W 091°10'0 0.0
2017-Dec-10 02:48N 32°45' W 091°10'1 0.1
2017-Dec-09 15:18N 32°45' W 091°09'0 0.4
2017-Dec-09 14:09N 32°46' W 091°10'1 4.1
2017-Dec-09 14:00N 32°45' W 091°09'1 0.9
2017-Dec-09 13:27N 32°45' W 091°10'1 1.5
2017-Dec-09 13:01N 32°45' W 091°10'0 0.1
2017-Dec-09 12:31N 32°45' W 091°10'0 0.0
2017-Dec-09 12:00N 32°45' W 091°10'0 0.0
2017-Dec-09 11:30N 32°45' W 091°10'0 0.0
2017-Dec-09 11:00N 32°45' W 091°10'0 0.0
2017-Dec-09 10:30N 32°45' W 091°10'0 0.0
2017-Dec-09 09:33N 32°45' W 091°10'0 0.0
2017-Dec-09 09:29N 32°45' W 091°10'0 0.0
2017-Dec-09 09:00N 32°45' W 091°10'0 0.0
2017-Dec-09 08:31N 32°45' W 091°10'0 0.0
2017-Dec-09 08:00N 32°45' W 091°10'1 1.5
2017-Dec-09 07:27N 32°45' W 091°09'0 0.5
2017-Dec-09 06:39N 32°45' W 091°10'0 1.6
2017-Dec-09 06:22N 32°45' W 091°09'0 0.3
2017-Dec-09 06:00N 32°45' W 091°09'0 0.0
2017-Dec-09 04:15N 32°45' W 091°09'0 0.2
2017-Dec-09 04:00N 32°45' W 091°09'1 0.1
2017-Dec-08 13:15N 32°45' W 091°10'0 0.0
2017-Dec-07 21:01N 32°45' W 091°10'0 0.0
2017-Dec-07 20:53N 32°45' W 091°10'0 0.0
2017-Dec-07 15:11N 32°45' W 091°10'0 0.0
2017-Dec-07 08:46N 32°45' W 091°10'0 0.0
2017-Dec-07 08:27N 32°45' W 091°10'0 0.0
2017-Dec-07 07:13N 32°45' W 091°10'0 0.0
2017-Dec-07 06:59N 32°45' W 091°10'0 0.0
2017-Dec-07 06:30N 32°45' W 091°10'0 0.0
2017-Dec-07 06:00N 32°45' W 091°10'0 0.0
2017-Dec-07 05:30N 32°45' W 091°10'0 0.4
2017-Dec-07 04:14N 32°45' W 091°10'  
2017-Dec-04 10:31N 32°45' W 091°10'0 0.4
2017-Dec-04 10:00N 32°45' W 091°10'0 0.3
2017-Dec-04 09:30N 32°45' W 091°10'3 5.0
2017-Dec-04 08:57N 32°44' W 091°07'2 3.2
2017-Dec-04 08:23N 32°44' W 091°05'5 5.5
2017-Dec-04 07:33N 32°45' W 091°10'0 5.1
2017-Dec-04 07:31N 32°45' W 091°10'0 0.0
2017-Dec-04 07:01N 32°45' W 091°10'0 0.0
2017-Dec-04 06:30N 32°45' W 091°10'0 0.0
2017-Dec-04 05:59N 32°45' W 091°10'0 0.0
2017-Dec-04 05:29N 32°45' W 091°10'0 0.0
2017-Dec-04 05:00N 32°45' W 091°10'0 0.0
2017-Dec-04 04:31N 32°45' W 091°10'0 0.0
2017-Dec-04 04:00N 32°45' W 091°10'0 0.0
2017-Dec-04 03:27N 32°45' W 091°10'0 0.0
2017-Dec-04 03:00N 32°45' W 091°10'0 0.8
2017-Dec-04 02:27N 32°45' W 091°10'1 1.4
2017-Dec-04 01:55N 32°45' W 091°09'1 1.4
2017-Dec-04 01:30N 32°45' W 091°09'0 0.7
2017-Dec-04 01:00N 32°45' W 091°09'1 0.1
2017-Dec-03 16:49N 32°45' W 091°10'3 4.0
2017-Dec-03 16:05N 32°44' W 091°07'1 0.7
2017-Dec-03 14:20N 32°44' W 091°05'0 0.0
2017-Dec-03 13:57N 32°44' W 091°05'0 0.1
2017-Dec-03 13:27N 32°44' W 091°05'0 0.1
2017-Dec-03 12:58N 32°44' W 091°05'4 6.7
2017-Dec-03 12:19N 32°45' W 091°10'0 0.1
2017-Dec-03 11:56N 32°45' W 091°10'2 3.3
2017-Dec-03 11:29N 32°44' W 091°09'1 1.6
2017-Dec-03 11:00N 32°45' W 091°09'1 1.9
2017-Dec-03 10:31N 32°45' W 091°10'0 0.0
2017-Dec-03 10:01N 32°45' W 091°10'0 0.0
2017-Dec-03 09:28N 32°45' W 091°10'0 0.0
2017-Dec-03 09:00N 32°45' W 091°10'0 0.0
2017-Dec-03 08:30N 32°45' W 091°10'0 0.0
2017-Dec-03 08:00N 32°45' W 091°10'0 0.0
2017-Dec-03 07:30N 32°45' W 091°10'0 0.0
2017-Dec-03 07:00N 32°45' W 091°10'0 0.0
2017-Dec-03 06:28N 32°45' W 091°10'0 0.0
2017-Dec-03 06:00N 32°45' W 091°10'0 0.0
2017-Dec-03 05:30N 32°45' W 091°10'0 0.0
2017-Dec-03 05:00N 32°45' W 091°10'0 0.0
2017-Dec-03 04:26N 32°45' W 091°10'0 0.0
2017-Dec-03 04:00N 32°45' W 091°10'0 0.0
2017-Dec-03 03:30N 32°45' W 091°10'0 0.0
2017-Dec-03 02:50N 32°45' W 091°10'0 0.0
2017-Dec-03 02:30N 32°45' W 091°10'0 0.0
2017-Dec-03 01:58N 32°45' W 091°10'0 0.0
2017-Dec-03 01:29N 32°45' W 091°10'0 0.0
2017-Dec-03 01:00N 32°45' W 091°10'0 0.0
2017-Dec-03 00:30N 32°45' W 091°10'0 0.0
2017-Dec-02 23:59N 32°45' W 091°10'0 0.0
2017-Dec-02 23:23N 32°45' W 091°10'0 0.0
2017-Dec-02 22:56N 32°45' W 091°10'0 0.0
2017-Dec-02 22:29N 32°45' W 091°10'0 0.0
2017-Dec-02 20:46N 32°45' W 091°10'0 0.0
2017-Dec-02 19:25N 32°45' W 091°10'0 0.0
2017-Dec-02 17:07N 32°45' W 091°10'0 0.0
2017-Dec-02 16:42N 32°45' W 091°10'0 0.0
2017-Dec-02 16:30N 32°45' W 091°10'0 0.0
2017-Dec-02 16:00N 32°45' W 091°10'0 0.0
2017-Dec-02 15:17N 32°45' W 091°10'0 0.2
2017-Dec-02 15:00N 32°45' W 091°10'2 2.7
2017-Dec-02 14:15N 32°44' W 091°08'0 0.1
2017-Dec-02 13:48N 32°44' W 091°08'0 0.8
2017-Dec-02 13:30N 32°44' W 091°08'2 4.5
2017-Dec-02 13:00N 32°45' W 091°10'0 0.0
2017-Dec-02 12:30N 32°45' W 091°10'0 0.0
2017-Dec-02 12:00N 32°45' W 091°10'0 0.0
2017-Dec-02 11:30N 32°45' W 091°10'0 0.0
2017-Dec-02 10:59N 32°45' W 091°10'0 0.0
2017-Dec-02 10:30N 32°45' W 091°10'0 0.0
2017-Dec-02 10:00N 32°45' W 091°10'0 0.0
2017-Dec-02 09:30N 32°45' W 091°10'0 0.0
2017-Dec-02 09:00N 32°45' W 091°10'0 0.0
2017-Dec-02 08:30N 32°45' W 091°10'0 0.0
2017-Dec-02 08:00N 32°45' W 091°10'0 0.0
2017-Dec-02 07:30N 32°45' W 091°10'0 0.0
2017-Dec-02 07:00N 32°45' W 091°10'0 0.0
2017-Dec-02 06:30N 32°45' W 091°10'0 0.0
2017-Dec-02 06:00N 32°45' W 091°10'0 0.0
2017-Dec-02 05:30N 32°45' W 091°10'0 0.0
2017-Dec-02 05:00N 32°45' W 091°10'0 0.0
2017-Dec-02 04:30N 32°45' W 091°10'0 0.0
2017-Dec-01 17:21N 32°45' W 091°10'0 0.2
2017-Dec-01 16:57N 32°45' W 091°10'  
Track history (hours):
 
Tides and Currents Weather Stations Pressure Air Temp Water Temp Dewpoint Dewpoint Depression Visibility Wind Speed Wind Dir Waves Ship Positions

Kim King

Owner: Terral RiverService, Inc., Lake Providence, LA. More information available from US FCC via Universal Licensing System and Coast Guard Vessel Documentation Center.

Last reported at 2017-Dec-11 16:38 UTC. Time now 2017-Dec-13 20:54 UTC.
Position N 32°45' W 091°10'.

; draft 6 m.

Type: Towing. MMSI: 367545540.

Date/timePositionNaut miles runAvg speedWind from/ knotsBaromVisibWave heightAir tempDewpointWater temp
2017-Dec-11 16:38N 32°45' W 091°10'0 0.0
2017-Dec-11 16:19N 32°45' W 091°10'1 1.3
2017-Dec-11 15:51N 32°45' W 091°10'1 0.2
2017-Dec-11 12:14N 32°45' W 091°10'0 0.0
2017-Dec-11 12:00N 32°45' W 091°10'0 0.0
2017-Dec-11 10:57N 32°45' W 091°10'0 0.0
2017-Dec-11 10:23N 32°45' W 091°10'0 0.0
2017-Dec-11 09:59N 32°45' W 091°10'0 0.0
2017-Dec-11 09:22N 32°45' W 091°10'0 0.0
2017-Dec-11 08:53N 32°45' W 091°10'0 0.0
2017-Dec-11 08:17N 32°45' W 091°10'0 0.0
2017-Dec-11 08:00N 32°45' W 091°10'0 0.0
2017-Dec-11 06:35N 32°45' W 091°10'0 0.0
2017-Dec-11 04:52N 32°45' W 091°10'0 0.0
2017-Dec-10 15:44N 32°45' W 091°10'0 0.0
2017-Dec-10 15:30N 32°45' W 091°10'0 0.0
2017-Dec-10 15:00N 32°45' W 091°10'0 0.0
2017-Dec-10 14:30N 32°45' W 091°10'0 0.2
2017-Dec-10 13:49N 32°45' W 091°10'0 0.2
2017-Dec-10 11:51N 32°45' W 091°10'0 0.0
2017-Dec-10 08:35N 32°45' W 091°10'0 0.2
2017-Dec-10 07:48N 32°45' W 091°10'5 4.0
2017-Dec-10 06:34N 32°44' W 091°04'5 4.8
2017-Dec-10 05:28N 32°45' W 091°10'0 0.0
2017-Dec-10 05:00N 32°45' W 091°10'0 0.0
2017-Dec-10 02:48N 32°45' W 091°10'1 0.1
2017-Dec-09 15:18N 32°45' W 091°09'0 0.4
2017-Dec-09 14:09N 32°46' W 091°10'1 4.1
2017-Dec-09 14:00N 32°45' W 091°09'1 0.9
2017-Dec-09 13:27N 32°45' W 091°10'1 1.5
2017-Dec-09 13:01N 32°45' W 091°10'0 0.1
2017-Dec-09 12:31N 32°45' W 091°10'0 0.0
2017-Dec-09 12:00N 32°45' W 091°10'0 0.0
2017-Dec-09 11:30N 32°45' W 091°10'0 0.0
2017-Dec-09 11:00N 32°45' W 091°10'0 0.0
2017-Dec-09 10:30N 32°45' W 091°10'0 0.0
2017-Dec-09 09:33N 32°45' W 091°10'0 0.0
2017-Dec-09 09:29N 32°45' W 091°10'0 0.0
2017-Dec-09 09:00N 32°45' W 091°10'0 0.0
2017-Dec-09 08:31N 32°45' W 091°10'0 0.0
2017-Dec-09 08:00N 32°45' W 091°10'1 1.5
2017-Dec-09 07:27N 32°45' W 091°09'0 0.5
2017-Dec-09 06:39N 32°45' W 091°10'0 1.6
2017-Dec-09 06:22N 32°45' W 091°09'0 0.3
2017-Dec-09 06:00N 32°45' W 091°09'0 0.0
2017-Dec-09 04:15N 32°45' W 091°09'0 0.2
2017-Dec-09 04:00N 32°45' W 091°09'1 0.1
2017-Dec-08 13:15N 32°45' W 091°10'0 0.0
2017-Dec-07 21:01N 32°45' W 091°10'0 0.0
2017-Dec-07 20:53N 32°45' W 091°10'0 0.0
2017-Dec-07 15:11N 32°45' W 091°10'0 0.0
2017-Dec-07 08:46N 32°45' W 091°10'0 0.0
2017-Dec-07 08:27N 32°45' W 091°10'0 0.0
2017-Dec-07 07:13N 32°45' W 091°10'0 0.0
2017-Dec-07 06:59N 32°45' W 091°10'0 0.0
2017-Dec-07 06:30N 32°45' W 091°10'0 0.0
2017-Dec-07 06:00N 32°45' W 091°10'0 0.0
2017-Dec-07 05:30N 32°45' W 091°10'0 0.4
2017-Dec-07 04:14N 32°45' W 091°10'  
2017-Dec-04 10:31N 32°45' W 091°10'0 0.4
2017-Dec-04 10:00N 32°45' W 091°10'0 0.3
2017-Dec-04 09:30N 32°45' W 091°10'3 5.0
2017-Dec-04 08:57N 32°44' W 091°07'2 3.2
2017-Dec-04 08:23N 32°44' W 091°05'5 5.5
2017-Dec-04 07:33N 32°45' W 091°10'0 5.1
2017-Dec-04 07:31N 32°45' W 091°10'0 0.0
2017-Dec-04 07:01N 32°45' W 091°10'0 0.0
2017-Dec-04 06:30N 32°45' W 091°10'0 0.0
2017-Dec-04 05:59N 32°45' W 091°10'0 0.0
2017-Dec-04 05:29N 32°45' W 091°10'0 0.0
2017-Dec-04 05:00N 32°45' W 091°10'0 0.0
2017-Dec-04 04:31N 32°45' W 091°10'0 0.0
2017-Dec-04 04:00N 32°45' W 091°10'0 0.0
2017-Dec-04 03:27N 32°45' W 091°10'0 0.0
2017-Dec-04 03:00N 32°45' W 091°10'0 0.8
2017-Dec-04 02:27N 32°45' W 091°10'1 1.4
2017-Dec-04 01:55N 32°45' W 091°09'1 1.4
2017-Dec-04 01:30N 32°45' W 091°09'0 0.7
2017-Dec-04 01:00N 32°45' W 091°09'1 0.1
2017-Dec-03 16:49N 32°45' W 091°10'3 4.0
2017-Dec-03 16:05N 32°44' W 091°07'1 0.7
2017-Dec-03 14:20N 32°44' W 091°05'0 0.0
2017-Dec-03 13:57N 32°44' W 091°05'0 0.1
2017-Dec-03 13:27N 32°44' W 091°05'0 0.1
2017-Dec-03 12:58N 32°44' W 091°05'4 6.7
2017-Dec-03 12:19N 32°45' W 091°10'0 0.1
2017-Dec-03 11:56N 32°45' W 091°10'2 3.3
2017-Dec-03 11:29N 32°44' W 091°09'1 1.6
2017-Dec-03 11:00N 32°45' W 091°09'1 1.9
2017-Dec-03 10:31N 32°45' W 091°10'0 0.0
2017-Dec-03 10:01N 32°45' W 091°10'0 0.0
2017-Dec-03 09:28N 32°45' W 091°10'0 0.0
2017-Dec-03 09:00N 32°45' W 091°10'0 0.0
2017-Dec-03 08:30N 32°45' W 091°10'0 0.0
2017-Dec-03 08:00N 32°45' W 091°10'0 0.0
2017-Dec-03 07:30N 32°45' W 091°10'0 0.0
2017-Dec-03 07:00N 32°45' W 091°10'0 0.0
2017-Dec-03 06:28N 32°45' W 091°10'0 0.0
2017-Dec-03 06:00N 32°45' W 091°10'0 0.0
2017-Dec-03 05:30N 32°45' W 091°10'0 0.0
2017-Dec-03 05:00N 32°45' W 091°10'0 0.0
2017-Dec-03 04:26N 32°45' W 091°10'0 0.0
2017-Dec-03 04:00N 32°45' W 091°10'0 0.0
2017-Dec-03 03:30N 32°45' W 091°10'0 0.0
2017-Dec-03 02:50N 32°45' W 091°10'0 0.0
2017-Dec-03 02:30N 32°45' W 091°10'0 0.0
2017-Dec-03 01:58N 32°45' W 091°10'0 0.0
2017-Dec-03 01:29N 32°45' W 091°10'0 0.0
2017-Dec-03 01:00N 32°45' W 091°10'0 0.0
2017-Dec-03 00:30N 32°45' W 091°10'0 0.0
2017-Dec-02 23:59N 32°45' W 091°10'0 0.0
2017-Dec-02 23:23N 32°45' W 091°10'0 0.0
2017-Dec-02 22:56N 32°45' W 091°10'0 0.0
2017-Dec-02 22:29N 32°45' W 091°10'0 0.0
2017-Dec-02 20:46N 32°45' W 091°10'0 0.0
2017-Dec-02 19:25N 32°45' W 091°10'0 0.0
2017-Dec-02 17:07N 32°45' W 091°10'0 0.0
2017-Dec-02 16:42N 32°45' W 091°10'0 0.0
2017-Dec-02 16:30N 32°45' W 091°10'0 0.0
2017-Dec-02 16:00N 32°45' W 091°10'0 0.0
2017-Dec-02 15:17N 32°45' W 091°10'0 0.2
2017-Dec-02 15:00N 32°45' W 091°10'2 2.7
2017-Dec-02 14:15N 32°44' W 091°08'0 0.1
2017-Dec-02 13:48N 32°44' W 091°08'0 0.8
2017-Dec-02 13:30N 32°44' W 091°08'2 4.5
2017-Dec-02 13:00N 32°45' W 091°10'0 0.0
2017-Dec-02 12:30N 32°45' W 091°10'0 0.0
2017-Dec-02 12:00N 32°45' W 091°10'0 0.0
2017-Dec-02 11:30N 32°45' W 091°10'0 0.0
2017-Dec-02 10:59N 32°45' W 091°10'0 0.0
2017-Dec-02 10:30N 32°45' W 091°10'0 0.0
2017-Dec-02 10:00N 32°45' W 091°10'0 0.0
2017-Dec-02 09:30N 32°45' W 091°10'0 0.0
2017-Dec-02 09:00N 32°45' W 091°10'0 0.0
2017-Dec-02 08:30N 32°45' W 091°10'0 0.0
2017-Dec-02 08:00N 32°45' W 091°10'0 0.0
2017-Dec-02 07:30N 32°45' W 091°10'0 0.0
2017-Dec-02 07:00N 32°45' W 091°10'0 0.0
2017-Dec-02 06:30N 32°45' W 091°10'0 0.0
2017-Dec-02 06:00N 32°45' W 091°10'0 0.0
2017-Dec-02 05:30N 32°45' W 091°10'0 0.0
2017-Dec-02 05:00N 32°45' W 091°10'0 0.0
2017-Dec-02 04:30N 32°45' W 091°10'0 0.0
2017-Dec-01 17:21N 32°45' W 091°10'0 0.2
2017-Dec-01 16:57N 32°45' W 091°10'  

Dump ship's entire track history